Andrews, Indiana
Current Conditions -  °F | °C
As of 10:35 AM on Sunday 21 Dec 2014 (Local Time) from KHHG Reporting Station
Overcast Overcast  
Wind Chill: 25°   Ceiling: 6000
Heat Index: 31°   Visibility: 7mi
Dew Point: 26°   Wind: 6mph
Humidity: 83%   Direction: 170°S
Pressure: 30.29"   Gusts: NA
Location:  40.86°N, 85.6°W
Report Text: KHHG 211535Z AUTO 17005KT 7SM OVC060 M01/M03 A3029 RMK AO2 T10071032
Loading
Personal Weather Stations






























Interactive Weather Map New forecast layout! Learn more

10-Day Weather Forecast

Advertisements
Track Severe Weather on mobile